Time;durP1;ratioP1;P1;durP2;ratioP2;P2;SDS_P1;SDS_P2;PMS_P1;PMS_P2;Temp;Humidity;BMP_temperature;BMP_pressure;BME280_temperature;BME280_humidity;BME280_pressure;Samples;Min_cycle;Max_cycle;Signal;HPM_P1;HPM_P2
2023/10/24 00:01:48;;;;;;;5.75;5.15;;;;;;;;;;5066697;27;100528;-78
2023/10/24 00:04:17;;;;;;;9.65;5.25;;;;;;;;;;5060702;27;98983;-78
2023/10/24 00:06:43;;;;;;;5.97;5.40;;;;;;;;;;5061919;27;100624;-78
2023/10/24 00:09:10;;;;;;;7.88;5.65;;;;;;;;;;5061755;27;100434;-78
2023/10/24 00:11:37;;;;;;;6.00;5.45;;;;;;;;;;5061468;27;99973;-77
2023/10/24 00:14:04;;;;;;;6.38;5.78;;;;;;;;;;5063407;27;99038;-77
2023/10/24 00:16:30;;;;;;;6.15;5.55;;;;;;;;;;5059879;27;100447;-77
2023/10/24 00:18:57;;;;;;;6.95;6.30;;;;;;;;;;5058757;27;99166;-79
2023/10/24 00:21:24;;;;;;;11.10;6.50;;;;;;;;;;5064406;27;102215;-77
2023/10/24 00:23:52;;;;;;;8.10;5.90;;;;;;;;;;5064559;27;100256;-79
2023/10/24 00:26:18;;;;;;;9.13;6.20;;;;;;;;;;5053555;27;99306;-78
2023/10/24 00:28:49;;;;;;;6.50;5.88;;;;;;;;;;5065023;27;99292;-78
2023/10/24 00:31:16;;;;;;;7.50;6.50;;;;;;;;;;5069140;27;100344;-78
2023/10/24 00:33:43;;;;;;;8.93;8.05;;;;;;;;;;5060657;27;102011;-77
2023/10/24 00:36:12;;;;;;;9.60;7.80;;;;;;;;;;5064923;27;100222;-76
2023/10/24 00:38:39;;;;;;;15.68;7.15;;;;;;;;;;5066657;27;98775;-77
2023/10/24 00:41:05;;;;;;;11.13;8.05;;;;;;;;;;5058935;27;99325;-78
2023/10/24 00:43:32;;;;;;;14.88;8.45;;;;;;;;;;5065696;27;99023;-79
2023/10/24 00:45:58;;;;;;;9.95;8.93;;;;;;;;;;5061036;27;101899;-79
2023/10/24 00:48:28;;;;;;;14.57;9.55;;;;;;;;;;5051091;27;100191;-78
2023/10/24 00:50:54;;;;;;;14.40;10.02;;;;;;;;;;5059920;27;100061;-77
2023/10/24 00:53:21;;;;;;;10.98;9.63;;;;;;;;;;5055917;27;99257;-77
2023/10/24 00:55:47;;;;;;;12.32;10.73;;;;;;;;;;5064844;27;100674;-76
2023/10/24 00:58:14;;;;;;;15.80;10.85;;;;;;;;;;5048540;27;99749;-78
2023/10/24 01:00:43;;;;;;;13.63;11.48;;;;;;;;;;5054613;27;100328;-78
2023/10/24 01:03:11;;;;;;;13.07;11.48;;;;;;;;;;5068070;27;98687;-77
2023/10/24 01:05:40;;;;;;;13.95;11.80;;;;;;;;;;5058497;27;99423;-78
2023/10/24 01:08:06;;;;;;;18.33;11.02;;;;;;;;;;5056124;27;100556;-78
2023/10/24 01:10:33;;;;;;;13.38;11.85;;;;;;;;;;5055796;27;99839;-78
2023/10/24 01:12:59;;;;;;;19.52;13.00;;;;;;;;;;5065650;27;99789;-78
2023/10/24 01:15:26;;;;;;;18.65;12.23;;;;;;;;;;5056463;27;101783;-77
2023/10/24 01:17:52;;;;;;;14.88;13.15;;;;;;;;;;5049647;27;98782;-78
2023/10/24 01:20:21;;;;;;;18.70;13.25;;;;;;;;;;5044574;27;100411;-77
2023/10/24 01:22:47;;;;;;;15.52;12.77;;;;;;;;;;5062527;27;99255;-79
2023/10/24 01:25:14;;;;;;;17.35;13.23;;;;;;;;;;5061214;27;98957;-78
2023/10/24 01:27:44;;;;;;;19.20;14.52;;;;;;;;;;5064266;27;100796;-76
2023/10/24 01:30:12;;;;;;;17.15;14.93;;;;;;;;;;5064420;27;99324;-78
2023/10/24 01:32:38;;;;;;;23.85;14.90;;;;;;;;;;5059871;27;99507;-77
2023/10/24 01:35:06;;;;;;;23.05;15.77;;;;;;;;;;5064384;27;100081;-78
2023/10/24 01:37:32;;;;;;;17.38;15.23;;;;;;;;;;5061259;27;98894;-77
2023/10/24 01:39:59;;;;;;;16.33;14.50;;;;;;;;;;5059524;27;100193;-77
2023/10/24 01:42:27;;;;;;;18.73;14.35;;;;;;;;;;5057556;27;100384;-77
2023/10/24 01:44:53;;;;;;;21.45;15.45;;;;;;;;;;5056136;27;99412;-78
2023/10/24 01:47:20;;;;;;;16.00;13.88;;;;;;;;;;5058081;27;99922;-77
2023/10/24 01:49:47;;;;;;;21.20;15.48;;;;;;;;;;5057433;27;99979;-77
2023/10/24 01:52:14;;;;;;;19.27;15.63;;;;;;;;;;5060925;27;100309;-78
2023/10/24 01:54:40;;;;;;;22.02;15.80;;;;;;;;;;5054995;27;100169;-77
2023/10/24 01:57:07;;;;;;;25.23;16.65;;;;;;;;;;5063284;27;98651;-77
2023/10/24 01:59:34;;;;;;;27.13;16.08;;;;;;;;;;5055600;27;100099;-78
2023/10/24 02:02:00;;;;;;;19.80;14.63;;;;;;;;;;5056373;27;101830;-78
2023/10/24 02:04:27;;;;;;;24.38;15.75;;;;;;;;;;5052720;27;100998;-77
2023/10/24 02:06:53;;;;;;;23.45;14.48;;;;;;;;;;5060827;27;100086;-78
2023/10/24 02:09:20;;;;;;;30.08;14.43;;;;;;;;;;5056386;27;99164;-78
2023/10/24 02:11:47;;;;;;;24.77;15.50;;;;;;;;;;5056491;27;99901;-77
2023/10/24 02:14:13;;;;;;;19.80;14.38;;;;;;;;;;5058358;27;100305;-77
2023/10/24 02:16:40;;;;;;;28.38;15.68;;;;;;;;;;5043012;27;102316;-78
2023/10/24 02:19:06;;;;;;;22.02;14.75;;;;;;;;;;5053712;27;100120;-77
2023/10/24 02:21:34;;;;;;;29.20;14.80;;;;;;;;;;5047170;27;99641;-78
2023/10/24 02:24:00;;;;;;;22.90;14.15;;;;;;;;;;5063965;27;99889;-77
2023/10/24 02:26:27;;;;;;;17.23;13.30;;;;;;;;;;5062546;27;100603;-78
2023/10/24 02:28:54;;;;;;;18.90;13.98;;;;;;;;;;5044647;27;99196;-77
2023/10/24 02:31:20;;;;;;;22.58;13.75;;;;;;;;;;5060607;27;98884;-78
2023/10/24 02:33:47;;;;;;;16.10;12.85;;;;;;;;;;5060855;27;100075;-78
2023/10/24 02:36:16;;;;;;;17.67;13.63;;;;;;;;;;5061624;27;98850;-78
2023/10/24 02:38:43;;;;;;;14.15;11.57;;;;;;;;;;5056487;27;98973;-77
2023/10/24 02:41:09;;;;;;;16.33;12.85;;;;;;;;;;5058489;27;98298;-78
2023/10/24 02:43:36;;;;;;;18.90;12.52;;;;;;;;;;5047087;27;98651;-78
2023/10/24 02:46:04;;;;;;;20.23;11.95;;;;;;;;;;5060279;27;101370;-78
2023/10/24 02:48:31;;;;;;;18.98;12.02;;;;;;;;;;5053969;27;101493;-78
2023/10/24 02:50:58;;;;;;;17.50;11.52;;;;;;;;;;5055407;27;98881;-77
2023/10/24 02:53:25;;;;;;;14.40;11.75;;;;;;;;;;5063470;27;100045;-77
2023/10/24 02:55:52;;;;;;;14.20;10.60;;;;;;;;;;5058630;27;100106;-78
2023/10/24 02:58:19;;;;;;;17.33;11.52;;;;;;;;;;5060523;27;98837;-77
2023/10/24 03:00:46;;;;;;;15.98;11.38;;;;;;;;;;5044882;27;101053;-77
2023/10/24 03:03:14;;;;;;;18.00;10.70;;;;;;;;;;5057615;27;99132;-77
2023/10/24 03:05:40;;;;;;;14.25;10.02;;;;;;;;;;5058231;27;100507;-77
2023/10/24 03:08:07;;;;;;;17.27;10.43;;;;;;;;;;5056037;27;101881;-77
2023/10/24 03:10:41;;;;;;;12.40;9.18;;;;;;;;;;5058539;27;101869;-77
2023/10/24 03:13:09;;;;;;;14.32;8.80;;;;;;;;;;5061180;27;101390;-77
2023/10/24 03:15:36;;;;;;;19.50;9.27;;;;;;;;;;5052931;27;100297;-77
2023/10/24 03:18:02;;;;;;;14.63;9.60;;;;;;;;;;5059894;27;100016;-76
2023/10/24 03:20:29;;;;;;;11.23;9.18;;;;;;;;;;5056328;27;100201;-77
2023/10/24 03:22:56;;;;;;;15.63;9.30;;;;;;;;;;5056785;27;99370;-76
2023/10/24 03:25:23;;;;;;;13.20;8.90;;;;;;;;;;5060382;27;98719;-77
2023/10/24 03:28:05;;;;;;;10.13;8.23;;;;;;;;;;5009737;27;99523;-77
2023/10/24 03:30:31;;;;;;;17.88;9.27;;;;;;;;;;5061471;27;98830;-75
2023/10/24 03:32:58;;;;;;;10.80;8.52;;;;;;;;;;5058179;27;99141;-76
2023/10/24 03:35:28;;;;;;;10.68;8.00;;;;;;;;;;5054869;27;100536;-76
2023/10/24 03:37:54;;;;;;;13.02;7.95;;;;;;;;;;5045609;27;101077;-77
2023/10/24 03:40:23;;;;;;;10.20;7.57;;;;;;;;;;5060412;27;99676;-76
2023/10/24 03:42:49;;;;;;;14.77;8.85;;;;;;;;;;5057521;27;101311;-77
2023/10/24 03:45:15;;;;;;;10.00;7.93;;;;;;;;;;5058793;27;100328;-78
2023/10/24 03:47:42;;;;;;;12.35;7.97;;;;;;;;;;5057203;27;100354;-79
2023/10/24 03:50:09;;;;;;;12.15;8.55;;;;;;;;;;5065943;27;99898;-77
2023/10/24 03:52:36;;;;;;;9.85;7.90;;;;;;;;;;5053974;27;99740;-76
2023/10/24 03:55:03;;;;;;;9.30;7.13;;;;;;;;;;5067026;27;99312;-77
2023/10/24 03:57:29;;;;;;;10.18;7.72;;;;;;;;;;5058994;27;99981;-77
2023/10/24 03:59:56;;;;;;;13.27;7.63;;;;;;;;;;5063843;27;100358;-77
2023/10/24 04:02:22;;;;;;;7.97;6.38;;;;;;;;;;5053299;27;99821;-76
2023/10/24 04:04:48;;;;;;;12.23;6.88;;;;;;;;;;5061828;27;100452;-77
2023/10/24 04:07:16;;;;;;;10.05;7.07;;;;;;;;;;5059899;27;100150;-77
2023/10/24 04:09:44;;;;;;;9.32;7.30;;;;;;;;;;5055675;27;100154;-77
2023/10/24 04:12:11;;;;;;;8.98;7.55;;;;;;;;;;5065004;27;99890;-77
2023/10/24 04:14:37;;;;;;;11.63;7.57;;;;;;;;;;5057722;27;100152;-77
2023/10/24 04:17:04;;;;;;;10.98;8.00;;;;;;;;;;5057117;27;99067;-78
2023/10/24 04:19:31;;;;;;;11.77;7.68;;;;;;;;;;5095596;27;99590;-76
2023/10/24 04:21:57;;;;;;;9.60;7.65;;;;;;;;;;5058892;27;99198;-77
2023/10/24 04:24:24;;;;;;;7.53;6.82;;;;;;;;;;5058270;27;99623;-77
2023/10/24 04:26:50;;;;;;;11.63;8.95;;;;;;;;;;5065946;27;100709;-77
2023/10/24 04:29:17;;;;;;;10.25;8.43;;;;;;;;;;5064155;27;100102;-77
2023/10/24 04:31:43;;;;;;;12.43;8.02;;;;;;;;;;5054008;27;99064;-76
2023/10/24 04:34:10;;;;;;;15.00;9.15;;;;;;;;;;5058612;27;100517;-76
2023/10/24 04:36:37;;;;;;;12.90;8.70;;;;;;;;;;5060267;27;99996;-77
2023/10/24 04:39:03;;;;;;;10.75;9.60;;;;;;;;;;5068495;27;98976;-77
2023/10/24 04:41:30;;;;;;;11.02;9.88;;;;;;;;;;5066607;27;99919;-77
2023/10/24 04:43:56;;;;;;;13.05;9.52;;;;;;;;;;5056424;27;99950;-77
2023/10/24 04:46:23;;;;;;;14.75;9.05;;;;;;;;;;5062169;27;100079;-77
2023/10/24 04:48:50;;;;;;;15.35;10.48;;;;;;;;;;5055151;27;99157;-77
2023/10/24 04:51:16;;;;;;;20.80;10.52;;;;;;;;;;5054994;27;99925;-77
2023/10/24 04:53:43;;;;;;;13.40;10.00;;;;;;;;;;5062451;27;100634;-77
2023/10/24 04:56:09;;;;;;;13.30;10.73;;;;;;;;;;5060710;27;99965;-77
2023/10/24 04:58:36;;;;;;;14.38;10.38;;;;;;;;;;5045956;27;99946;-77
2023/10/24 05:01:03;;;;;;;13.82;9.85;;;;;;;;;;5051112;27;100243;-76
2023/10/24 05:03:31;;;;;;;25.25;10.43;;;;;;;;;;5065132;27;100029;-77
2023/10/24 05:05:57;;;;;;;15.40;10.32;;;;;;;;;;5051803;27;99946;-77
2023/10/24 05:08:24;;;;;;;17.80;10.95;;;;;;;;;;5046843;27;99543;-77
2023/10/24 05:10:50;;;;;;;12.98;9.80;;;;;;;;;;5063646;27;98495;-78
2023/10/24 05:13:17;;;;;;;11.32;10.10;;;;;;;;;;5051535;27;101019;-77
2023/10/24 05:15:44;;;;;;;13.80;9.77;;;;;;;;;;5055271;27;99593;-76
2023/10/24 05:18:11;;;;;;;18.45;11.20;;;;;;;;;;5055627;27;100455;-76
2023/10/24 05:20:38;;;;;;;17.35;10.23;;;;;;;;;;5059602;27;100702;-76
2023/10/24 05:23:05;;;;;;;13.02;10.43;;;;;;;;;;5062233;27;100567;-76
2023/10/24 05:25:32;;;;;;;14.18;11.23;;;;;;;;;;5060361;27;99970;-76
2023/10/24 05:27:58;;;;;;;15.32;11.02;;;;;;;;;;5056871;27;100547;-76
2023/10/24 05:30:25;;;;;;;16.17;11.52;;;;;;;;;;5057265;27;99985;-77
2023/10/24 05:32:51;;;;;;;16.33;10.68;;;;;;;;;;5066324;27;99625;-78
2023/10/24 05:35:17;;;;;;;16.40;11.15;;;;;;;;;;5062089;27;99070;-76
2023/10/24 05:37:44;;;;;;;13.45;11.13;;;;;;;;;;5062054;27;100309;-76
2023/10/24 05:40:11;;;;;;;19.42;12.00;;;;;;;;;;5053987;27;100993;-76
2023/10/24 05:42:38;;;;;;;22.30;12.35;;;;;;;;;;5059340;27;99918;-76
2023/10/24 05:45:05;;;;;;;14.30;11.52;;;;;;;;;;5053026;27;99133;-77
2023/10/24 05:47:31;;;;;;;17.52;11.25;;;;;;;;;;5048990;27;101875;-78
2023/10/24 05:49:58;;;;;;;18.42;11.75;;;;;;;;;;5059883;27;100741;-77
2023/10/24 05:52:24;;;;;;;20.33;12.38;;;;;;;;;;5058066;27;99737;-77
2023/10/24 05:54:52;;;;;;;15.52;11.80;;;;;;;;;;5056047;27;99890;-77
2023/10/24 05:57:18;;;;;;;16.15;12.10;;;;;;;;;;5056781;27;99934;-77
2023/10/24 05:59:44;;;;;;;16.85;12.05;;;;;;;;;;5058930;27;100107;-77
2023/10/24 06:02:11;;;;;;;20.65;11.95;;;;;;;;;;5056836;27;99219;-78
2023/10/24 06:04:37;;;;;;;17.63;12.88;;;;;;;;;;5055451;27;100884;-78
2023/10/24 06:07:07;;;;;;;13.95;12.10;;;;;;;;;;5068680;27;100355;-77
2023/10/24 06:09:33;;;;;;;17.73;12.90;;;;;;;;;;5055701;27;100219;-77
2023/10/24 06:12:00;;;;;;;19.45;12.30;;;;;;;;;;5059679;27;100267;-77
2023/10/24 06:14:26;;;;;;;20.45;12.15;;;;;;;;;;5052479;27;100097;-77
2023/10/24 06:16:54;;;;;;;18.08;11.95;;;;;;;;;;5055353;27;99023;-77
2023/10/24 06:19:21;;;;;;;13.98;11.60;;;;;;;;;;5058118;27;100182;-77
2023/10/24 06:21:48;;;;;;;16.00;11.07;;;;;;;;;;5061217;27;99923;-78
2023/10/24 06:24:14;;;;;;;18.63;10.80;;;;;;;;;;5057562;27;99309;-77
2023/10/24 06:26:40;;;;;;;15.93;10.57;;;;;;;;;;5057980;27;100237;-76
2023/10/24 06:29:07;;;;;;;11.88;10.65;;;;;;;;;;5061764;27;99935;-77
2023/10/24 06:31:33;;;;;;;16.52;10.85;;;;;;;;;;5063753;27;100125;-77
2023/10/24 06:34:02;;;;;;;12.18;9.75;;;;;;;;;;5050855;27;100579;-77
2023/10/24 06:36:29;;;;;;;17.02;10.75;;;;;;;;;;5054499;27;100303;-78
2023/10/24 06:38:55;;;;;;;10.98;9.60;;;;;;;;;;5062938;27;100223;-78
2023/10/24 06:41:22;;;;;;;12.27;9.88;;;;;;;;;;5049492;27;99651;-77
2023/10/24 06:43:49;;;;;;;13.23;10.75;;;;;;;;;;5063626;27;99846;-78
2023/10/24 06:46:16;;;;;;;14.68;9.70;;;;;;;;;;5061621;27;99997;-78
2023/10/24 06:48:42;;;;;;;16.40;9.88;;;;;;;;;;5049569;27;100417;-78
2023/10/24 06:51:08;;;;;;;13.13;10.40;;;;;;;;;;5053645;27;100367;-79
2023/10/24 06:53:35;;;;;;;14.15;10.88;;;;;;;;;;5049574;27;100027;-78
2023/10/24 06:56:01;;;;;;;11.25;9.73;;;;;;;;;;5051426;27;100017;-76
2023/10/24 06:58:28;;;;;;;14.32;9.88;;;;;;;;;;5048011;27;100546;-78
2023/10/24 07:00:56;;;;;;;11.52;9.55;;;;;;;;;;5057296;27;99424;-78
2023/10/24 07:03:23;;;;;;;14.15;9.77;;;;;;;;;;5056097;27;100019;-78
2023/10/24 07:05:51;;;;;;;12.63;10.70;;;;;;;;;;5051408;27;100676;-77
2023/10/24 07:08:17;;;;;;;12.48;9.88;;;;;;;;;;5044478;27;99872;-77
2023/10/24 07:10:44;;;;;;;13.75;10.05;;;;;;;;;;5048367;27;100148;-78
2023/10/24 07:13:11;;;;;;;11.15;9.68;;;;;;;;;;5046041;27;99920;-77
2023/10/24 07:15:39;;;;;;;10.85;9.10;;;;;;;;;;5048422;27;99234;-77
2023/10/24 07:18:06;;;;;;;13.38;10.20;;;;;;;;;;5058851;27;100974;-78
2023/10/24 07:20:39;;;;;;;10.18;9.18;;;;;;;;;;5057762;27;98893;-78
2023/10/24 07:23:06;;;;;;;10.82;9.20;;;;;;;;;;5048231;27;100575;-78
2023/10/24 07:25:32;;;;;;;10.48;9.52;;;;;;;;;;5048010;27;99206;-77
2023/10/24 07:27:59;;;;;;;11.05;9.98;;;;;;;;;;5055773;27;100149;-76
2023/10/24 07:30:25;;;;;;;15.40;9.65;;;;;;;;;;5053049;27;102138;-77
2023/10/24 07:32:55;;;;;;;10.82;9.82;;;;;;;;;;5063973;27;99460;-77
2023/10/24 07:35:23;;;;;;;15.48;9.93;;;;;;;;;;5061567;27;99845;-76
2023/10/24 07:37:49;;;;;;;15.35;10.80;;;;;;;;;;5056756;27;99522;-77
2023/10/24 07:40:16;;;;;;;16.02;10.15;;;;;;;;;;5047761;27;100121;-76
2023/10/24 07:42:42;;;;;;;12.88;10.27;;;;;;;;;;5053623;27;99387;-76
2023/10/24 07:45:11;;;;;;;17.55;10.65;;;;;;;;;;5059380;27;99482;-77
2023/10/24 07:47:38;;;;;;;12.38;10.23;;;;;;;;;;5063055;27;99268;-77
2023/10/24 07:50:06;;;;;;;14.82;10.45;;;;;;;;;;5062818;27;99269;-77
2023/10/24 07:52:33;;;;;;;13.43;10.88;;;;;;;;;;5054838;27;100163;-77
2023/10/24 07:54:59;;;;;;;13.40;11.18;;;;;;;;;;5056636;27;99126;-76
2023/10/24 07:57:25;;;;;;;13.32;10.65;;;;;;;;;;5052499;27;100434;-75
2023/10/24 07:59:52;;;;;;;14.85;10.82;;;;;;;;;;5050887;27;99934;-74
2023/10/24 08:02:18;;;;;;;15.10;12.13;;;;;;;;;;5052019;27;100377;-74
2023/10/24 08:04:45;;;;;;;13.27;10.27;;;;;;;;;;5054985;27;100378;-78
2023/10/24 08:07:12;;;;;;;15.85;11.98;;;;;;;;;;5049000;27;100400;-78
2023/10/24 08:09:38;;;;;;;13.10;10.98;;;;;;;;;;5058169;27;99900;-77
2023/10/24 08:12:05;;;;;;;16.45;12.68;;;;;;;;;;5050999;27;100620;-77
2023/10/24 08:14:31;;;;;;;15.38;12.52;;;;;;;;;;5052036;27;100286;-77
2023/10/24 08:16:58;;;;;;;15.50;11.38;;;;;;;;;;5054569;27;100062;-75
2023/10/24 08:19:24;;;;;;;14.70;11.88;;;;;;;;;;5058024;27;100038;-76
2023/10/24 08:21:51;;;;;;;16.77;12.05;;;;;;;;;;5055967;27;99927;-78
2023/10/24 08:24:17;;;;;;;16.08;11.18;;;;;;;;;;5058091;27;99688;-76
2023/10/24 08:26:44;;;;;;;13.23;11.20;;;;;;;;;;5053255;27;99583;-78
2023/10/24 08:29:30;;;;;;;13.95;11.80;;;;;;;;;;5047479;27;99414;-76
2023/10/24 08:31:57;;;;;;;13.07;10.70;;;;;;;;;;5054492;27;101225;-77
2023/10/24 08:34:26;;;;;;;13.57;11.27;;;;;;;;;;5057783;27;98792;-75
2023/10/24 08:36:53;;;;;;;14.10;12.10;;;;;;;;;;5051823;27;100152;-76
2023/10/24 08:39:21;;;;;;;13.93;11.63;;;;;;;;;;5062337;27;99159;-78
2023/10/24 08:41:53;;;;;;;13.43;11.90;;;;;;;;;;5055288;27;100648;-77
2023/10/24 08:44:20;;;;;;;15.90;11.40;;;;;;;;;;5060981;27;100328;-77
2023/10/24 08:46:47;;;;;;;13.15;11.32;;;;;;;;;;5058558;27;99963;-77
2023/10/24 08:49:14;;;;;;;12.98;10.95;;;;;;;;;;5050768;27;99384;-78
2023/10/24 08:51:40;;;;;;;11.00;9.73;;;;;;;;;;5051681;27;100143;-76
2023/10/24 08:54:07;;;;;;;13.23;10.10;;;;;;;;;;5049218;27;101072;-77
2023/10/24 08:56:35;;;;;;;11.63;10.52;;;;;;;;;;5054701;27;101799;-77
2023/10/24 08:59:03;;;;;;;12.70;9.80;;;;;;;;;;5061702;27;100579;-78
2023/10/24 09:01:30;;;;;;;11.48;10.38;;;;;;;;;;5055221;27;99993;-77
2023/10/24 09:03:57;;;;;;;13.25;10.00;;;;;;;;;;5051123;27;100135;-77
2023/10/24 09:06:23;;;;;;;10.75;9.63;;;;;;;;;;5050087;27;100214;-77
2023/10/24 09:08:50;;;;;;;11.05;9.95;;;;;;;;;;5053568;27;99185;-77
2023/10/24 09:11:16;;;;;;;12.10;9.80;;;;;;;;;;5048303;27;102076;-75
2023/10/24 09:13:44;;;;;;;11.57;10.27;;;;;;;;;;5050566;27;99240;-75
2023/10/24 09:16:11;;;;;;;11.55;10.23;;;;;;;;;;5050174;27;99499;-74
2023/10/24 09:18:38;;;;;;;13.05;9.73;;;;;;;;;;5053545;27;99564;-75
2023/10/24 09:21:07;;;;;;;11.18;10.02;;;;;;;;;;5055532;27;100194;-75
2023/10/24 09:23:35;;;;;;;17.02;9.70;;;;;;;;;;5055248;27;100392;-74
2023/10/24 09:26:02;;;;;;;12.52;9.23;;;;;;;;;;5058516;27;100058;-75
2023/10/24 09:28:29;;;;;;;9.45;8.55;;;;;;;;;;5056721;27;100296;-76
2023/10/24 09:30:58;;;;;;;8.95;8.00;;;;;;;;;;5078638;27;100213;-75
2023/10/24 09:33:25;;;;;;;8.38;7.68;;;;;;;;;;5052614;27;99642;-76
2023/10/24 09:35:52;;;;;;;9.18;8.32;;;;;;;;;;5049547;27;99165;-75
2023/10/24 09:38:42;;;;;;;8.38;7.53;;;;;;;;;;5054647;27;99431;-75
2023/10/24 09:41:10;;;;;;;12.52;7.85;;;;;;;;;;5044758;27;99841;-75
2023/10/24 09:43:41;;;;;;;8.32;7.40;;;;;;;;;;5065367;27;100177;-75
2023/10/24 09:46:08;;;;;;;9.38;8.05;;;;;;;;;;5053440;27;100601;-75
2023/10/24 09:48:35;;;;;;;6.55;5.95;;;;;;;;;;5049511;27;100596;-75
2023/10/24 09:51:02;;;;;;;7.63;6.90;;;;;;;;;;5056165;27;99896;-75
2023/10/24 09:53:28;;;;;;;8.35;6.35;;;;;;;;;;5055987;27;99889;-75
2023/10/24 09:55:56;;;;;;;7.40;6.75;;;;;;;;;;5049117;27;99224;-75
2023/10/24 09:58:24;;;;;;;6.28;5.78;;;;;;;;;;5057366;27;100226;-75
2023/10/24 10:00:50;;;;;;;6.03;5.63;;;;;;;;;;5053734;27;100175;-75
2023/10/24 10:03:17;;;;;;;7.13;6.05;;;;;;;;;;5051805;27;99868;-75
2023/10/24 10:05:44;;;;;;;6.03;5.40;;;;;;;;;;5058662;27;99447;-75
2023/10/24 10:08:13;;;;;;;11.43;5.90;;;;;;;;;;5051969;27;99790;-75
2023/10/24 10:10:42;;;;;;;6.05;5.55;;;;;;;;;;5055906;27;101040;-75
2023/10/24 10:13:14;;;;;;;5.50;5.20;;;;;;;;;;5056956;27;99162;-76
2023/10/24 10:15:45;;;;;;;5.55;4.65;;;;;;;;;;5052841;27;99897;-74
2023/10/24 10:18:20;;;;;;;5.13;4.65;;;;;;;;;;5053749;27;99450;-77
2023/10/24 10:21:00;;;;;;;4.90;4.55;;;;;;;;;;5054538;27;100465;-76
2023/10/24 10:23:33;;;;;;;5.50;5.03;;;;;;;;;;5055142;27;99402;-76
2023/10/24 10:26:06;;;;;;;5.53;5.03;;;;;;;;;;5052970;27;100338;-75
2023/10/24 10:28:39;;;;;;;5.70;4.45;;;;;;;;;;5049051;27;100123;-77
2023/10/24 10:31:11;;;;;;;4.85;4.55;;;;;;;;;;5049572;27;99495;-76
2023/10/24 10:33:57;;;;;;;7.17;5.20;;;;;;;;;;5045615;27;99780;-76
2023/10/24 10:36:25;;;;;;;5.90;5.30;;;;;;;;;;5050636;27;100190;-76
2023/10/24 10:38:54;;;;;;;5.78;5.28;;;;;;;;;;5052600;27;100133;-76
2023/10/24 10:41:24;;;;;;;8.60;4.93;;;;;;;;;;5050591;27;99555;-75
2023/10/24 10:43:53;;;;;;;5.85;5.45;;;;;;;;;;5049583;27;99967;-74
2023/10/24 10:46:20;;;;;;;7.32;5.10;;;;;;;;;;5056145;27;100352;-75
2023/10/24 10:48:47;;;;;;;7.53;4.70;;;;;;;;;;5060957;27;99729;-74
2023/10/24 10:51:22;;;;;;;7.25;5.85;;;;;;;;;;5054671;27;100286;-75
2023/10/24 10:54:09;;;;;;;6.85;5.57;;;;;;;;;;5052345;27;99209;-76
2023/10/24 10:56:37;;;;;;;5.40;4.70;;;;;;;;;;5044275;27;99102;-76
2023/10/24 10:59:06;;;;;;;6.25;4.88;;;;;;;;;;5054149;27;99556;-74
2023/10/24 11:01:38;;;;;;;4.97;4.68;;;;;;;;;;5052048;27;99299;-75
2023/10/24 11:04:11;;;;;;;5.15;4.68;;;;;;;;;;5053921;27;101155;-75
2023/10/24 11:06:40;;;;;;;6.38;5.10;;;;;;;;;;5049738;27;100599;-75
2023/10/24 11:09:08;;;;;;;4.88;4.47;;;;;;;;;;5044936;27;99964;-75
2023/10/24 11:11:37;;;;;;;4.40;4.00;;;;;;;;;;5054873;27;99878;-74
2023/10/24 11:14:14;;;;;;;7.75;4.63;;;;;;;;;;5054145;27;99859;-73
2023/10/24 11:16:42;;;;;;;4.05;3.72;;;;;;;;;;5049826;27;99851;-74
2023/10/24 11:19:29;;;;;;;8.05;4.35;;;;;;;;;;5054260;27;99923;-75
2023/10/24 11:21:56;;;;;;;4.50;4.13;;;;;;;;;;5054784;27;102877;-73
2023/10/24 11:24:23;;;;;;;5.60;3.90;;;;;;;;;;5055305;27;100417;-74
2023/10/24 11:26:52;;;;;;;4.03;3.63;;;;;;;;;;5055248;27;100164;-74
2023/10/24 11:29:19;;;;;;;9.15;4.32;;;;;;;;;;5052626;27;100015;-75
2023/10/24 11:31:45;;;;;;;4.63;4.22;;;;;;;;;;5043584;27;99166;-75
2023/10/24 11:34:18;;;;;;;3.87;3.63;;;;;;;;;;5062373;27;100090;-75
2023/10/24 11:36:46;;;;;;;10.25;4.55;;;;;;;;;;5047597;27;99825;-76
2023/10/24 11:39:15;;;;;;;4.53;3.95;;;;;;;;;;5045042;27;101162;-75
2023/10/24 11:41:44;;;;;;;4.53;4.13;;;;;;;;;;5055689;27;99895;-76
2023/10/24 11:44:12;;;;;;;4.38;4.07;;;;;;;;;;5047403;27;99758;-74
2023/10/24 11:46:39;;;;;;;4.47;4.18;;;;;;;;;;5045677;27;99193;-76
2023/10/24 11:49:06;;;;;;;4.50;4.07;;;;;;;;;;5051619;27;99630;-76
2023/10/24 11:51:35;;;;;;;5.15;4.65;;;;;;;;;;5052612;27;99334;-73
2023/10/24 11:54:02;;;;;;;4.18;3.88;;;;;;;;;;5049480;27;100361;-75
2023/10/24 11:56:30;;;;;;;5.28;4.22;;;;;;;;;;5058375;27;101618;-74
2023/10/24 11:58:57;;;;;;;4.07;3.78;;;;;;;;;;5051138;27;99583;-74
2023/10/24 12:01:24;;;;;;;4.30;3.95;;;;;;;;;;5052726;27;100299;-73
2023/10/24 12:03:56;;;;;;;6.25;4.30;;;;;;;;;;5064089;27;99372;-75
2023/10/24 12:06:23;;;;;;;4.30;4.00;;;;;;;;;;5062484;27;100177;-75
2023/10/24 12:08:49;;;;;;;5.28;4.50;;;;;;;;;;5047403;27;100004;-75
2023/10/24 12:11:16;;;;;;;3.63;3.42;;;;;;;;;;5056593;27;99698;-75
2023/10/24 12:13:43;;;;;;;5.07;3.88;;;;;;;;;;5059510;27;100159;-74
2023/10/24 12:16:09;;;;;;;4.18;3.88;;;;;;;;;;5056080;27;100292;-74
2023/10/24 12:18:38;;;;;;;4.88;4.45;;;;;;;;;;5059354;27;100901;-74
2023/10/24 12:21:05;;;;;;;4.50;4.07;;;;;;;;;;5056827;27;100724;-74
2023/10/24 12:23:31;;;;;;;8.77;4.18;;;;;;;;;;5052417;27;100477;-73
2023/10/24 12:25:58;;;;;;;4.00;3.80;;;;;;;;;;5058014;27;99883;-73
2023/10/24 12:28:25;;;;;;;4.80;4.32;;;;;;;;;;5056552;27;100522;-74
2023/10/24 12:30:52;;;;;;;4.28;3.97;;;;;;;;;;5060555;27;100394;-74
2023/10/24 12:33:19;;;;;;;4.50;4.10;;;;;;;;;;5053236;27;99281;-76
2023/10/24 12:35:45;;;;;;;6.97;3.65;;;;;;;;;;5049723;27;99402;-75
2023/10/24 12:38:12;;;;;;;4.10;3.80;;;;;;;;;;5051788;27;100269;-77
2023/10/24 12:40:38;;;;;;;3.20;3.00;;;;;;;;;;5058648;27;100651;-77
2023/10/24 12:43:06;;;;;;;4.57;3.28;;;;;;;;;;5053948;27;99683;-76
2023/10/24 12:45:32;;;;;;;4.00;3.70;;;;;;;;;;5047271;27;100878;-74
2023/10/24 12:47:59;;;;;;;3.00;2.90;;;;;;;;;;5061762;27;99902;-74
2023/10/24 12:50:26;;;;;;;3.72;3.53;;;;;;;;;;5050475;27;99375;-76
2023/10/24 12:52:54;;;;;;;3.72;3.42;;;;;;;;;;5050527;27;101880;-76
2023/10/24 12:55:21;;;;;;;3.25;3.03;;;;;;;;;;5054100;27;99943;-75
2023/10/24 12:57:48;;;;;;;3.30;3.10;;;;;;;;;;5046718;27;100297;-75
2023/10/24 13:00:14;;;;;;;3.38;3.10;;;;;;;;;;5046361;27;101342;-75
2023/10/24 13:02:41;;;;;;;3.28;3.00;;;;;;;;;;5059440;27;99437;-75
2023/10/24 13:05:07;;;;;;;3.15;2.95;;;;;;;;;;5050356;27;100022;-75
2023/10/24 13:07:34;;;;;;;3.30;3.00;;;;;;;;;;5055815;27;99944;-75
2023/10/24 13:10:01;;;;;;;3.22;2.65;;;;;;;;;;5053745;27;99819;-74
2023/10/24 13:12:28;;;;;;;3.05;2.83;;;;;;;;;;5050875;27;100248;-75
2023/10/24 13:14:54;;;;;;;2.85;2.65;;;;;;;;;;5047471;27;100245;-75
2023/10/24 13:17:20;;;;;;;2.67;2.53;;;;;;;;;;5058969;27;100013;-75
2023/10/24 13:19:47;;;;;;;3.13;2.42;;;;;;;;;;5059721;27;100730;-75
2023/10/24 13:22:13;;;;;;;3.05;2.78;;;;;;;;;;5055816;27;100785;-75
2023/10/24 13:24:42;;;;;;;2.97;2.78;;;;;;;;;;5053855;27;99321;-75
2023/10/24 13:27:08;;;;;;;3.42;2.17;;;;;;;;;;5054260;27;98920;-74
2023/10/24 13:29:35;;;;;;;3.08;2.45;;;;;;;;;;5045558;27;99807;-77
2023/10/24 13:32:02;;;;;;;4.60;2.70;;;;;;;;;;5056480;27;99827;-76
2023/10/24 13:34:29;;;;;;;5.07;2.17;;;;;;;;;;5057519;27;100296;-76
2023/10/24 13:36:58;;;;;;;3.65;2.42;;;;;;;;;;5053022;27;102322;-76
2023/10/24 13:39:25;;;;;;;2.75;2.55;;;;;;;;;;5047739;27;99437;-76
2023/10/24 13:41:51;;;;;;;3.17;2.78;;;;;;;;;;5054700;27;100195;-74
2023/10/24 13:44:18;;;;;;;3.05;2.78;;;;;;;;;;5056371;27;99887;-76
2023/10/24 13:46:45;;;;;;;2.90;2.65;;;;;;;;;;5045467;27;99050;-75
2023/10/24 13:49:11;;;;;;;2.67;2.47;;;;;;;;;;5056297;27;99186;-76
2023/10/24 13:51:38;;;;;;;4.25;3.05;;;;;;;;;;5057376;27;100248;-76
2023/10/24 13:54:05;;;;;;;4.78;2.90;;;;;;;;;;5053900;27;99681;-75
2023/10/24 13:56:33;;;;;;;3.88;2.80;;;;;;;;;;5051347;27;100214;-74
2023/10/24 13:58:59;;;;;;;3.63;2.58;;;;;;;;;;5047515;27;99466;-76
2023/10/24 14:01:28;;;;;;;4.82;3.00;;;;;;;;;;5044455;27;99004;-76
2023/10/24 14:03:54;;;;;;;2.80;2.60;;;;;;;;;;5049327;27;100485;-76
2023/10/24 14:06:21;;;;;;;2.65;2.45;;;;;;;;;;5056138;27;100471;-76
2023/10/24 14:08:48;;;;;;;2.78;2.58;;;;;;;;;;5044864;27;98999;-75
2023/10/24 14:11:14;;;;;;;4.32;2.75;;;;;;;;;;5048466;27;98987;-74
2023/10/24 14:13:41;;;;;;;2.92;2.55;;;;;;;;;;5056176;27;100331;-74
2023/10/24 14:16:08;;;;;;;5.30;2.83;;;;;;;;;;5046413;27;99066;-76
2023/10/24 14:18:34;;;;;;;5.97;3.53;;;;;;;;;;5052563;27;100666;-76
2023/10/24 14:21:01;;;;;;;3.05;2.85;;;;;;;;;;5053656;27;99964;-74
2023/10/24 14:23:28;;;;;;;2.45;2.35;;;;;;;;;;5053166;27;100347;-75
2023/10/24 14:25:54;;;;;;;5.50;2.83;;;;;;;;;;5055759;27;99591;-75